createdAt,value
2022-10-04T00:00:12.330Z,51.87
2022-10-04T00:03:19.838Z,52.39
2022-10-04T00:06:25.309Z,52.48
2022-10-04T00:09:31.013Z,52.38
2022-10-04T00:12:35.921Z,52.65
2022-10-04T00:15:39.172Z,52.72
2022-10-04T00:18:46.203Z,52.53
2022-10-04T00:22:10.226Z,52.58
2022-10-04T00:25:18.715Z,52.22
2022-10-04T00:28:44.179Z,52.82
2022-10-04T00:32:01.691Z,52.39
2022-10-04T00:35:05.011Z,52.38
2022-10-04T00:38:10.340Z,52.55
2022-10-04T00:41:14.823Z,53.06
2022-10-04T00:44:21.279Z,54.76
2022-10-04T00:47:31.818Z,53.78
2022-10-04T00:50:37.172Z,54.19
2022-10-04T00:53:48.511Z,56.59
2022-10-04T00:56:53.501Z,56.79
2022-10-04T00:59:59.252Z,56.59
2022-10-04T01:03:03.657Z,56.60
2022-10-04T01:06:08.076Z,55.77
2022-10-04T01:09:11.714Z,54.65
2022-10-04T01:12:22.496Z,54.80
2022-10-04T01:15:31.080Z,54.23
2022-10-04T01:18:34.383Z,65.58
2022-10-04T01:21:39.241Z,71.82
2022-10-04T01:24:44.160Z,59.95
2022-10-04T01:27:46.961Z,58.72
2022-10-04T01:30:50.058Z,58.55
2022-10-04T01:33:52.825Z,56.91
2022-10-04T01:36:56.677Z,56.01
2022-10-04T01:40:00.806Z,55.75
2022-10-04T01:43:06.160Z,55.45
2022-10-04T01:46:12.181Z,60.62
2022-10-04T01:49:18.402Z,56.52
2022-10-04T01:52:23.472Z,58.19
2022-10-04T01:55:30.076Z,58.64
2022-10-04T01:58:35.093Z,55.89
2022-10-04T02:01:40.703Z,55.44
2022-10-04T02:04:44.414Z,56.22
2022-10-04T02:07:48.767Z,55.37
2022-10-04T02:10:54.976Z,55.66
2022-10-04T02:13:58.522Z,54.50
2022-10-04T02:17:02.678Z,54.27
2022-10-04T02:20:10.853Z,56.25
2022-10-04T02:23:13.982Z,54.07
2022-10-04T02:26:18.074Z,54.64
2022-10-04T02:29:21.319Z,55.36
2022-10-04T02:32:41.807Z,54.60
2022-10-04T02:35:45.977Z,53.94
2022-10-04T02:38:52.714Z,54.12
2022-10-04T02:41:58.946Z,55.40
2022-10-04T02:45:06.888Z,55.15
2022-10-04T02:48:18.266Z,55.07
2022-10-04T02:51:22.151Z,54.74
2022-10-04T02:54:29.781Z,53.38
2022-10-04T02:57:35.105Z,53.65
2022-10-04T03:00:47.661Z,54.47
2022-10-04T03:03:50.383Z,53.83
2022-10-04T03:06:54.051Z,55.20
2022-10-04T03:09:56.765Z,54.02
2022-10-04T03:13:00.802Z,53.67
2022-10-04T03:16:03.899Z,53.92
2022-10-04T03:19:07.812Z,53.76
2022-10-04T03:22:11.549Z,53.83
2022-10-04T03:25:17.169Z,53.28
2022-10-04T03:28:21.692Z,53.69
2022-10-04T03:31:26.896Z,55.13
2022-10-04T03:34:33.115Z,53.85
2022-10-04T03:37:36.714Z,54.61
2022-10-04T03:40:43.086Z,55.30
2022-10-04T03:43:49.458Z,53.87
2022-10-04T03:46:52.199Z,53.82
2022-10-04T03:49:55.845Z,53.91
2022-10-04T03:53:00.043Z,53.33
2022-10-04T03:56:04.666Z,53.73
2022-10-04T03:59:09.952Z,54.13
2022-10-04T04:02:17.211Z,53.92
2022-10-04T04:05:22.992Z,53.43
2022-10-04T04:08:28.340Z,53.89
2022-10-04T04:11:31.083Z,53.04
2022-10-04T04:14:35.157Z,54.25
2022-10-04T04:17:40.965Z,54.52
2022-10-04T04:20:44.842Z,53.67
2022-10-04T04:23:50.377Z,53.67
2022-10-04T04:26:55.424Z,54.28
2022-10-04T04:30:00.604Z,53.67
2022-10-04T04:33:08.206Z,54.11
2022-10-04T04:36:12.694Z,54.13
2022-10-04T04:39:36.817Z,54.15
2022-10-04T04:42:39.502Z,54.14
2022-10-04T04:45:43.747Z,54.36
2022-10-04T04:48:48.410Z,53.53
2022-10-04T04:51:52.412Z,53.51
2022-10-04T04:54:56.489Z,54.35
2022-10-04T04:58:00.353Z,54.19
2022-10-04T05:01:07.193Z,54.44
2022-10-04T05:04:17.961Z,54.28
2022-10-04T05:07:21.156Z,54.82
2022-10-04T05:10:30.745Z,53.07
2022-10-04T05:13:37.257Z,54.20
2022-10-04T05:16:43.083Z,53.70
2022-10-04T05:19:46.398Z,53.69
2022-10-04T05:22:50.400Z,53.53
2022-10-04T05:25:53.499Z,53.29
2022-10-04T05:28:56.456Z,55.08
2022-10-04T05:32:06.335Z,53.76
2022-10-04T05:35:16.299Z,53.74
2022-10-04T05:38:26.613Z,52.87
2022-10-04T05:41:33.602Z,52.65
2022-10-04T05:44:37.956Z,53.70
2022-10-04T05:47:43.116Z,52.45
2022-10-04T05:50:45.903Z,52.70
2022-10-04T05:53:50.283Z,53.42
2022-10-04T05:57:10.860Z,51.46
2022-10-04T06:00:15.821Z,52.94
2022-10-04T06:03:30.087Z,52.19
2022-10-04T06:06:38.764Z,51.87
2022-10-04T06:09:51.731Z,51.70
2022-10-04T06:12:58.346Z,51.42
2022-10-04T06:16:17.048Z,50.96
2022-10-04T06:19:34.707Z,51.39
2022-10-04T06:22:45.707Z,52.15
2022-10-04T06:25:50.447Z,51.53
2022-10-04T06:28:56.247Z,51.24
2022-10-04T06:32:24.103Z,51.22
2022-10-04T06:35:42.897Z,50.80
2022-10-04T06:39:04.036Z,50.80
2022-10-04T06:42:25.361Z,50.78
2022-10-04T06:45:31.725Z,50.60
2022-10-04T06:48:44.508Z,50.25
2022-10-04T06:51:57.775Z,50.36
2022-10-04T06:55:18.058Z,50.03
2022-10-04T06:58:39.007Z,50.32
2022-10-04T07:01:49.264Z,51.55
2022-10-04T07:05:08.112Z,51.04
2022-10-04T07:08:13.615Z,50.67
2022-10-04T07:11:18.696Z,50.30
2022-10-04T07:14:27.591Z,50.08
2022-10-04T07:17:31.687Z,50.66
2022-10-04T07:20:35.730Z,50.60
2022-10-04T07:23:40.836Z,50.20
2022-10-04T07:26:46.299Z,49.95
2022-10-04T07:29:56.198Z,50.21
2022-10-04T07:32:59.375Z,50.03
2022-10-04T07:36:05.258Z,50.33
2022-10-04T07:39:11.511Z,50.31
2022-10-04T07:42:20.511Z,49.81
2022-10-04T07:45:30.059Z,50.24
2022-10-04T07:48:33.266Z,49.93
2022-10-04T07:51:40.058Z,49.29
2022-10-04T07:54:46.957Z,49.67
2022-10-04T07:57:55.037Z,49.68
2022-10-04T08:01:02.256Z,49.41
2022-10-04T08:04:15.316Z,49.61
2022-10-04T08:07:20.845Z,49.01
2022-10-04T08:10:27.782Z,49.11
2022-10-04T08:13:36.109Z,48.84
2022-10-04T08:16:47.351Z,48.69
2022-10-04T08:19:58.007Z,48.76
2022-10-04T08:23:06.315Z,47.76
2022-10-04T08:26:18.705Z,48.07
2022-10-04T08:29:47.395Z,48.21
2022-10-04T08:32:56.008Z,48.25
2022-10-04T08:36:06.024Z,48.47
2022-10-04T08:39:18.578Z,48.21
2022-10-04T08:42:41.976Z,47.66
2022-10-04T08:46:10.966Z,47.12
2022-10-04T08:49:40.052Z,46.91
2022-10-04T08:53:00.020Z,46.30
2022-10-04T08:56:17.388Z,45.89
2022-10-04T08:59:50.897Z,46.38
2022-10-04T09:03:18.985Z,46.22
2022-10-04T09:06:42.763Z,46.40
2022-10-04T09:10:09.165Z,45.66
2022-10-04T09:13:33.031Z,45.48
2022-10-04T09:16:43.798Z,45.27
2022-10-04T09:19:54.040Z,45.20
2022-10-04T09:23:02.867Z,45.85
2022-10-04T09:26:21.052Z,45.51
2022-10-04T09:29:33.040Z,45.12
2022-10-04T09:32:49.150Z,44.79
2022-10-04T09:36:00.119Z,44.91
2022-10-04T09:39:30.058Z,44.31
2022-10-04T09:42:42.367Z,44.17
2022-10-04T09:45:52.848Z,43.88
2022-10-04T09:49:04.885Z,44.58
2022-10-04T09:52:14.284Z,44.50
2022-10-04T09:55:24.221Z,44.56
2022-10-04T09:58:45.377Z,44.48
2022-10-04T10:01:51.903Z,42.36
2022-10-04T10:05:02.253Z,44.35
2022-10-04T10:08:13.005Z,43.52
2022-10-04T10:11:39.552Z,44.04
2022-10-04T10:14:57.781Z,42.62
2022-10-04T10:18:06.404Z,43.51
2022-10-04T10:21:19.747Z,44.74
2022-10-04T10:24:28.142Z,44.66
2022-10-04T10:27:45.761Z,44.68
2022-10-04T10:30:59.016Z,44.32
2022-10-04T10:34:14.562Z,44.78
2022-10-04T10:37:18.978Z,44.32
2022-10-04T10:40:40.956Z,44.60
2022-10-04T10:44:02.299Z,44.78
2022-10-04T10:47:15.075Z,44.11
2022-10-04T10:50:27.481Z,44.52
2022-10-04T10:53:46.208Z,44.82
2022-10-04T10:56:58.155Z,44.78
2022-10-04T11:00:18.671Z,44.98
2022-10-04T11:03:40.003Z,44.46
2022-10-04T11:07:01.861Z,45.71
2022-10-04T11:10:23.072Z,45.36
2022-10-04T11:13:45.152Z,45.68
2022-10-04T11:16:58.567Z,45.64
2022-10-04T11:20:24.379Z,45.42
2022-10-04T11:23:54.147Z,44.27
2022-10-04T11:27:28.569Z,44.57
2022-10-04T11:30:38.325Z,44.11
2022-10-04T11:33:58.546Z,45.68
2022-10-04T11:37:06.303Z,54.10
2022-10-04T11:40:18.017Z,47.75
2022-10-04T11:43:27.777Z,46.66
2022-10-04T11:46:37.400Z,44.68
2022-10-04T11:49:48.295Z,44.68
2022-10-04T11:53:06.155Z,45.17
2022-10-04T11:56:34.175Z,46.36
2022-10-04T11:59:44.625Z,44.27
2022-10-04T12:03:02.845Z,45.97
2022-10-04T12:06:14.655Z,46.77
2022-10-04T12:09:19.944Z,45.08
2022-10-04T12:12:41.614Z,45.76
2022-10-04T12:15:56.667Z,46.76
2022-10-04T12:19:20.936Z,45.42
2022-10-04T12:22:30.912Z,45.67
2022-10-04T12:25:42.615Z,46.74
2022-10-04T12:29:00.008Z,45.68
2022-10-04T12:32:08.221Z,44.74
2022-10-04T12:46:49.688Z,48.54
2022-10-04T12:49:57.953Z,49.35
2022-10-04T12:53:07.480Z,51.06
2022-10-04T12:56:18.314Z,50.53
2022-10-04T12:59:30.445Z,50.25
2022-10-04T13:02:48.992Z,48.70
2022-10-04T13:06:02.848Z,49.60
2022-10-04T13:09:09.431Z,51.30
2022-10-04T13:12:22.799Z,51.25
2022-10-04T13:17:21.681Z,50.80
2022-10-04T13:18:58.435Z,51.27
2022-10-04T13:22:15.655Z,50.37
2022-10-04T13:25:32.079Z,52.24
2022-10-04T13:28:39.994Z,51.49
2022-10-04T13:31:50.217Z,52.30
2022-10-04T13:34:57.403Z,51.95
2022-10-04T13:38:12.046Z,53.91
2022-10-04T13:41:21.649Z,53.74
2022-10-04T13:44:36.910Z,53.39
2022-10-04T13:47:48.172Z,53.29
2022-10-04T13:51:00.778Z,51.90
2022-10-04T13:54:30.568Z,52.71
2022-10-04T13:57:41.474Z,51.99
2022-10-04T14:00:54.608Z,51.56
2022-10-04T14:04:08.071Z,52.32
2022-10-04T14:07:34.949Z,52.97
2022-10-04T14:10:52.675Z,52.15
2022-10-04T14:14:31.381Z,51.86
2022-10-04T14:17:48.251Z,51.35
2022-10-04T14:21:20.484Z,51.81
2022-10-04T14:24:34.568Z,51.35
2022-10-04T14:28:02.300Z,51.76
2022-10-04T14:31:20.617Z,52.09
2022-10-04T14:34:35.012Z,51.76
2022-10-04T14:38:08.239Z,51.94
2022-10-04T14:41:32.452Z,52.75
2022-10-04T14:44:44.974Z,54.94
2022-10-04T14:48:18.132Z,54.44
2022-10-04T14:51:32.407Z,53.91
2022-10-04T14:54:46.183Z,53.54
2022-10-04T14:57:54.459Z,52.56
2022-10-04T15:01:08.998Z,53.51
2022-10-04T15:04:31.403Z,52.95
2022-10-04T15:07:37.701Z,52.36
2022-10-04T15:10:49.578Z,53.32
2022-10-04T15:13:55.934Z,53.48
2022-10-04T15:17:01.528Z,53.93
2022-10-04T15:20:10.874Z,53.96
2022-10-04T15:23:21.078Z,53.15
2022-10-04T15:26:50.410Z,53.84
2022-10-04T15:30:00.357Z,54.10
2022-10-04T15:33:23.487Z,53.67
2022-10-04T15:36:40.914Z,53.85
2022-10-04T15:40:03.900Z,53.61
2022-10-04T15:43:22.144Z,53.98
2022-10-04T15:46:32.171Z,54.05
2022-10-04T15:49:50.170Z,54.04
2022-10-04T15:53:19.638Z,54.59
2022-10-04T15:56:32.471Z,52.91
2022-10-04T15:59:45.347Z,54.29
2022-10-04T16:02:53.475Z,56.45
2022-10-04T16:06:00.351Z,55.75
2022-10-04T16:09:14.013Z,54.49
2022-10-04T16:12:22.849Z,54.89
2022-10-04T16:15:32.492Z,55.30
2022-10-04T16:18:40.821Z,53.65
2022-10-04T16:21:52.861Z,56.03
2022-10-04T16:25:00.337Z,56.95
2022-10-04T16:28:09.918Z,55.73
2022-10-04T16:31:20.407Z,55.78
2022-10-04T16:34:30.613Z,56.59
2022-10-04T16:37:36.201Z,54.93
2022-10-04T16:40:41.854Z,55.84
2022-10-04T16:43:56.885Z,55.38
2022-10-04T16:47:05.634Z,56.62
2022-10-04T16:50:11.314Z,55.90
2022-10-04T16:53:23.462Z,55.41
2022-10-04T16:56:28.702Z,56.74
2022-10-04T16:59:48.124Z,55.80
2022-10-04T17:03:12.432Z,55.70
2022-10-04T17:06:17.388Z,55.79
2022-10-04T17:09:25.836Z,55.87
2022-10-04T17:12:37.689Z,55.27
2022-10-04T17:16:00.827Z,55.19
2022-10-04T17:19:16.530Z,56.27
2022-10-04T17:22:26.776Z,55.71
2022-10-04T17:25:34.968Z,55.38
2022-10-04T17:28:47.813Z,54.97
2022-10-04T17:31:58.595Z,55.28
2022-10-04T17:35:09.227Z,54.57
2022-10-04T17:38:17.677Z,55.12
2022-10-04T17:41:25.218Z,56.08
2022-10-04T17:44:47.057Z,55.88
2022-10-04T17:48:13.643Z,54.63
2022-10-04T17:51:45.503Z,55.60
2022-10-04T17:55:08.868Z,58.67
2022-10-04T17:58:15.903Z,57.49
2022-10-04T18:01:32.113Z,54.43
2022-10-04T18:04:42.949Z,55.26
2022-10-04T18:07:49.846Z,57.82
2022-10-04T18:10:59.151Z,56.58
2022-10-04T18:14:04.060Z,56.07
2022-10-04T18:17:09.834Z,54.99
2022-10-04T18:20:27.983Z,54.69
2022-10-04T18:23:34.801Z,55.51
2022-10-04T18:26:41.593Z,54.82
2022-10-04T18:29:46.011Z,55.07
2022-10-04T18:32:53.766Z,55.86
2022-10-04T18:36:06.630Z,54.44
2022-10-04T18:39:40.809Z,55.53
2022-10-04T18:42:47.381Z,55.63
2022-10-04T18:46:07.967Z,56.30
2022-10-04T18:49:25.983Z,55.87
2022-10-04T18:52:42.472Z,54.38
2022-10-04T18:55:52.209Z,54.59
2022-10-04T18:59:20.924Z,54.22
2022-10-04T19:02:34.765Z,54.57
2022-10-04T19:05:44.299Z,55.73
2022-10-04T19:09:01.196Z,54.67
2022-10-04T19:12:08.617Z,54.61
2022-10-04T19:15:18.383Z,55.98
2022-10-04T19:18:35.526Z,54.26
2022-10-04T19:21:47.546Z,55.20
2022-10-04T19:25:03.593Z,54.76
2022-10-04T19:28:12.629Z,52.80
2022-10-04T19:31:21.857Z,54.66
2022-10-04T19:34:34.143Z,53.85
2022-10-04T19:37:46.416Z,54.55
2022-10-04T19:40:57.810Z,53.15
2022-10-04T19:44:05.541Z,54.37
2022-10-04T19:47:22.569Z,53.63
2022-10-04T19:50:27.472Z,52.90
2022-10-04T19:53:37.033Z,54.07
2022-10-04T19:56:43.925Z,53.96
2022-10-04T19:59:50.725Z,52.27
2022-10-04T20:02:53.539Z,52.98
2022-10-04T20:05:57.974Z,54.22
2022-10-04T20:09:24.437Z,55.08
2022-10-04T20:12:35.453Z,54.67
2022-10-04T20:15:46.673Z,53.75
2022-10-04T20:18:57.569Z,55.04
2022-10-04T20:22:20.833Z,55.27
2022-10-04T20:25:41.453Z,55.13
2022-10-04T20:28:46.216Z,55.39
2022-10-04T20:31:53.443Z,54.08
2022-10-04T20:35:00.169Z,54.92
2022-10-04T20:38:32.057Z,53.35
2022-10-04T20:42:22.687Z,56.61
2022-10-04T20:45:30.834Z,54.31
2022-10-04T20:48:33.930Z,54.45
2022-10-04T20:51:36.651Z,53.61
2022-10-04T20:54:40.592Z,56.00
2022-10-04T20:57:43.327Z,54.59
2022-10-04T21:00:53.594Z,55.66
2022-10-04T21:04:12.732Z,55.39
2022-10-04T21:07:18.371Z,54.66
2022-10-04T21:10:21.386Z,55.88
2022-10-04T21:13:43.010Z,56.12
2022-10-04T21:16:48.483Z,56.35
2022-10-04T21:19:51.500Z,56.16
2022-10-04T21:23:08.341Z,55.04
2022-10-04T21:26:20.961Z,55.50
2022-10-04T21:29:23.638Z,54.25
2022-10-04T21:32:28.387Z,55.43
2022-10-04T21:35:31.061Z,53.43
2022-10-04T21:38:33.764Z,55.22
2022-10-04T21:41:36.578Z,55.33
2022-10-04T21:44:39.209Z,53.71
2022-10-04T21:47:43.314Z,55.35
2022-10-04T21:50:46.051Z,55.73
2022-10-04T21:53:48.735Z,55.30
2022-10-04T21:56:51.411Z,55.23
2022-10-04T21:59:54.060Z,54.57
2022-10-04T22:02:58.155Z,56.97
2022-10-04T22:06:00.893Z,54.36
2022-10-04T22:09:03.661Z,55.36
2022-10-04T22:12:06.352Z,53.99
2022-10-04T22:15:09.440Z,53.30
2022-10-04T22:18:13.497Z,53.67
2022-10-04T22:21:16.213Z,53.47
2022-10-04T22:24:20.056Z,52.24
2022-10-04T22:27:22.802Z,53.21
2022-10-04T22:30:26.432Z,53.52
2022-10-04T22:33:33.995Z,52.86
2022-10-04T22:36:37.959Z,53.42
2022-10-04T22:39:40.672Z,53.03
2022-10-04T22:42:43.409Z,52.48
2022-10-04T22:45:46.080Z,52.87
2022-10-04T22:48:50.713Z,52.94
2022-10-04T22:51:54.337Z,52.92
2022-10-04T22:55:00.418Z,53.09
2022-10-04T22:58:03.407Z,52.27
2022-10-04T23:01:11.878Z,53.20
2022-10-04T23:04:17.909Z,52.87
2022-10-04T23:07:20.937Z,52.77
2022-10-04T23:10:23.576Z,52.99
2022-10-04T23:13:26.958Z,52.15
2022-10-04T23:16:29.852Z,52.18
2022-10-04T23:19:33.908Z,53.48
2022-10-04T23:22:36.780Z,53.50
2022-10-04T23:25:42.736Z,53.69
2022-10-04T23:28:45.483Z,52.94
2022-10-04T23:31:49.786Z,51.67
2022-10-04T23:34:56.870Z,53.13
2022-10-04T23:37:59.958Z,53.21
2022-10-04T23:41:03.043Z,53.32
2022-10-04T23:44:11.441Z,54.05
2022-10-04T23:47:15.700Z,52.85
2022-10-04T23:50:22.144Z,52.18
2022-10-04T23:53:27.139Z,52.82
2022-10-04T23:56:30.428Z,52.48
2022-10-04T23:59:33.171Z,52.84
